Time;durP1;ratioP1;P1;durP2;ratioP2;P2;SDS_P1;SDS_P2;PMS_P1;PMS_P2;Temp;Humidity;BMP_temperature;BMP_pressure;BME280_temperature;BME280_humidity;BME280_pressure;Samples;Min_cycle;Max_cycle;Signal;HPM_P1;HPM_P2
2022/10/30 00:00:29;;;;;;;11.18;8.85;;;15.30;78.30;;;;;;5112062;28;20050;-74
2022/10/30 00:02:54;;;;;;;12.70;8.68;;;15.30;78.30;;;;;;5107160;28;20043;-74
2022/10/30 00:05:20;;;;;;;14.82;8.65;;;15.30;78.40;;;;;;5115603;27;20047;-74
2022/10/30 00:07:49;;;;;;;16.33;9.07;;;15.30;78.50;;;;;;5105170;28;20071;-74
2022/10/30 00:10:16;;;;;;;15.25;9.07;;;15.30;78.60;;;;;;5150261;27;20490;-73
2022/10/30 00:12:43;;;;;;;13.05;8.80;;;15.30;78.60;;;;;;5132307;27;20046;-73
2022/10/30 00:15:09;;;;;;;17.42;9.88;;;15.20;78.70;;;;;;5136371;27;20031;-73
2022/10/30 00:17:35;;;;;;;17.92;9.07;;;15.30;78.80;;;;;;5108381;27;20040;-73
2022/10/30 00:20:01;;;;;;;16.65;9.60;;;15.30;78.90;;;;;;5106752;28;20550;-73
2022/10/30 00:22:27;;;;;;;20.58;9.20;;;15.20;78.90;;;;;;5130403;27;20039;-73
2022/10/30 00:24:52;;;;;;;14.90;8.85;;;15.30;79.00;;;;;;5098737;28;20036;-73
2022/10/30 00:27:18;;;;;;;20.15;10.48;;;15.30;79.10;;;;;;5124964;27;20496;-74
2022/10/30 00:29:44;;;;;;;15.10;9.35;;;15.20;79.10;;;;;;5135440;27;20042;-74
2022/10/30 00:32:10;;;;;;;19.13;10.13;;;15.20;79.10;;;;;;5134406;27;20031;-73
2022/10/30 00:34:35;;;;;;;19.02;9.80;;;15.20;79.10;;;;;;5120211;27;20165;-74
2022/10/30 00:37:01;;;;;;;14.55;9.13;;;15.20;79.10;;;;;;5088283;27;20039;-73
2022/10/30 00:39:26;;;;;;;17.85;9.50;;;15.20;79.10;;;;;;5135471;27;20047;-74
2022/10/30 00:41:52;;;;;;;15.40;9.73;;;15.20;79.10;;;;;;5135833;27;20077;-73
2022/10/30 00:44:43;;;;;;;16.63;9.18;;;15.20;79.20;;;;;;5109882;27;20047;-73
2022/10/30 00:47:33;;;;;;;16.48;9.73;;;15.20;79.10;;;;;;5129307;27;20118;-73
2022/10/30 00:50:02;;;;;;;12.73;8.40;;;15.20;79.00;;;;;;5123872;27;20028;-74
2022/10/30 00:52:32;;;;;;;13.68;9.50;;;15.20;79.20;;;;;;5132013;27;20460;-74
2022/10/30 00:55:04;;;;;;;14.38;8.90;;;15.20;79.20;;;;;;5130119;27;20478;-74
2022/10/30 00:57:30;;;;;;;17.70;9.48;;;15.20;79.20;;;;;;5126277;27;20045;-74
2022/10/30 00:59:56;;;;;;;18.98;9.77;;;15.20;79.20;;;;;;5112317;27;20049;-74
2022/10/30 01:02:22;;;;;;;18.35;10.15;;;15.20;79.20;;;;;;5117426;27;20608;-74
2022/10/30 01:04:49;;;;;;;11.80;8.73;;;15.20;79.20;;;;;;5127688;27;20061;-74
2022/10/30 01:07:16;;;;;;;17.85;10.32;;;15.20;79.20;;;;;;5131164;27;20043;-74
2022/10/30 01:09:43;;;;;;;14.15;9.50;;;15.20;79.20;;;;;;5117472;27;20035;-77
2022/10/30 01:12:08;;;;;;;19.52;10.00;;;15.10;79.10;;;;;;5135447;27;20091;-77
2022/10/30 01:14:39;;;;;;;14.63;9.15;;;15.10;79.10;;;;;;5135108;27;20038;-77
2022/10/30 01:17:37;;;;;;;18.77;9.73;;;15.10;79.10;;;;;;5132615;27;20051;-77
2022/10/30 01:20:11;;;;;;;17.90;9.52;;;15.10;79.10;;;;;;5074383;27;20051;-77
2022/10/30 01:22:55;;;;;;;17.15;10.57;;;15.10;79.10;;;;;;5131958;27;20039;-76
2022/10/30 01:25:45;;;;;;;14.43;8.40;;;15.10;79.10;;;;;;5114635;28;20046;-77
2022/10/30 01:28:27;;;;;;;15.95;8.73;;;15.10;79.10;;;;;;5098858;28;20040;-74
2022/10/30 01:30:58;;;;;;;16.27;10.00;;;15.10;79.10;;;;;;5149097;27;20031;-74
2022/10/30 01:33:39;;;;;;;21.73;9.90;;;15.00;79.10;;;;;;5120935;27;20403;-74
2022/10/30 01:36:32;;;;;;;16.05;9.45;;;15.00;79.20;;;;;;5131122;27;20067;-74
2022/10/30 01:39:06;;;;;;;17.58;9.93;;;15.00;79.10;;;;;;5127208;27;20505;-76
2022/10/30 01:41:31;;;;;;;18.30;9.55;;;15.00;79.20;;;;;;5114278;28;20149;-76
2022/10/30 01:44:04;;;;;;;16.05;9.60;;;15.00;79.20;;;;;;5147506;27;20114;-77
2022/10/30 01:46:51;;;;;;;17.23;10.45;;;15.00;79.30;;;;;;5122299;27;20039;-77
2022/10/30 01:49:54;;;;;;;15.32;9.32;;;15.00;79.30;;;;;;5137248;27;20032;-77
2022/10/30 01:52:36;;;;;;;16.98;10.15;;;15.00;79.20;;;;;;5097143;28;20035;-77
2022/10/30 01:55:33;;;;;;;16.45;9.27;;;15.00;79.30;;;;;;5110708;27;20043;-77
2022/10/30 01:58:15;;;;;;;13.80;8.77;;;14.90;79.30;;;;;;5122794;27;20440;-77
2022/10/30 02:00:42;;;;;;;16.10;9.32;;;14.90;79.20;;;;;;5133784;27;20032;-77
2022/10/30 02:03:08;;;;;;;13.77;9.02;;;14.90;79.40;;;;;;5133585;27;20046;-77
2022/10/30 02:05:47;;;;;;;16.63;10.50;;;14.90;79.80;;;;;;5115596;27;20111;-77
2022/10/30 02:08:13;;;;;;;19.83;10.27;;;14.90;79.40;;;;;;5097081;28;20439;-75
2022/10/30 02:10:41;;;;;;;15.27;9.07;;;14.90;79.40;;;;;;5109633;28;20074;-76
2022/10/30 02:13:07;;;;;;;14.07;9.05;;;14.90;79.50;;;;;;5102144;28;20079;-76
2022/10/30 02:15:34;;;;;;;12.30;8.75;;;14.90;79.50;;;;;;5111603;27;20508;-76
2022/10/30 02:18:00;;;;;;;13.02;9.20;;;14.90;79.50;;;;;;5115978;27;20092;-76
2022/10/30 02:20:25;;;;;;;15.73;9.25;;;14.80;79.50;;;;;;5093246;27;20088;-76
2022/10/30 02:22:52;;;;;;;15.65;9.73;;;14.80;79.50;;;;;;5098975;28;20036;-76
2022/10/30 02:25:17;;;;;;;15.13;9.70;;;14.80;79.50;;;;;;5124490;27;20043;-76
2022/10/30 02:27:43;;;;;;;15.07;10.00;;;14.80;79.50;;;;;;5096538;28;20140;-76
2022/10/30 02:30:09;;;;;;;14.43;9.05;;;14.80;79.50;;;;;;5096674;28;20039;-76
2022/10/30 02:32:35;;;;;;;17.85;9.30;;;14.80;79.50;;;;;;5120846;27;20389;-76
2022/10/30 02:35:00;;;;;;;15.05;9.48;;;14.80;79.60;;;;;;5126937;27;20036;-76
2022/10/30 02:37:26;;;;;;;15.95;9.85;;;14.80;79.60;;;;;;5096164;28;20047;-76
2022/10/30 02:39:52;;;;;;;16.45;10.10;;;14.80;79.60;;;;;;5097288;27;20038;-76
2022/10/30 02:42:18;;;;;;;12.73;8.50;;;14.80;79.60;;;;;;5133792;27;20497;-76
2022/10/30 02:44:44;;;;;;;19.45;10.00;;;14.80;79.70;;;;;;5115626;27;20066;-76
2022/10/30 02:47:09;;;;;;;17.65;9.70;;;14.70;80.10;;;;;;5112864;27;20135;-76
2022/10/30 02:49:35;;;;;;;13.32;8.98;;;14.80;79.70;;;;;;5132545;27;20043;-73
2022/10/30 02:52:01;;;;;;;16.70;9.88;;;14.80;80.20;;;;;;5114453;27;20042;-73
2022/10/30 02:54:27;;;;;;;16.33;10.57;;;14.80;79.80;;;;;;5133171;27;20046;-73
2022/10/30 02:56:52;;;;;;;18.00;9.68;;;14.70;79.80;;;;;;5122844;27;20036;-73
2022/10/30 02:59:19;;;;;;;14.13;9.55;;;14.70;79.80;;;;;;5147306;27;20122;-73
2022/10/30 03:01:45;;;;;;;17.33;10.50;;;14.70;79.90;;;;;;5117409;27;20074;-73
2022/10/30 03:04:10;;;;;;;17.00;10.00;;;14.80;80.00;;;;;;5131717;27;20085;-73
2022/10/30 03:06:36;;;;;;;15.02;9.07;;;14.70;79.90;;;;;;5126544;27;20045;-73
2022/10/30 03:09:02;;;;;;;13.73;9.38;;;14.70;79.90;;;;;;5120409;27;20035;-73
2022/10/30 03:11:28;;;;;;;18.02;10.65;;;14.70;79.90;;;;;;5126282;27;20469;-73
2022/10/30 03:13:54;;;;;;;14.38;8.70;;;14.70;79.90;;;;;;5115864;27;20042;-73
2022/10/30 03:16:22;;;;;;;14.43;9.57;;;14.70;79.90;;;;;;5122406;27;20036;-73
2022/10/30 03:18:48;;;;;;;16.90;9.98;;;14.70;79.90;;;;;;5113450;27;20047;-73
2022/10/30 03:21:17;;;;;;;23.80;10.35;;;14.70;79.90;;;;;;5122095;27;20040;-73
2022/10/30 03:23:43;;;;;;;15.50;9.35;;;14.70;79.90;;;;;;5133300;27;20044;-73
2022/10/30 03:26:09;;;;;;;19.77;9.77;;;14.70;79.90;;;;;;5117404;27;20065;-73
2022/10/30 03:28:35;;;;;;;16.02;9.80;;;14.70;79.90;;;;;;5112178;28;20486;-73
2022/10/30 03:31:06;;;;;;;14.43;10.10;;;14.70;79.80;;;;;;5117395;27;20031;-73
2022/10/30 03:33:33;;;;;;;15.80;8.93;;;14.70;79.80;;;;;;5097324;28;20043;-72
2022/10/30 03:36:00;;;;;;;13.15;8.48;;;14.70;79.80;;;;;;5117593;27;20420;-73
2022/10/30 03:38:26;;;;;;;20.23;11.00;;;14.70;79.70;;;;;;5112940;27;20391;-73
2022/10/30 03:40:52;;;;;;;13.85;8.50;;;14.60;79.70;;;;;;5131431;27;20036;-73
2022/10/30 03:43:18;;;;;;;13.85;9.40;;;14.60;79.60;;;;;;5123388;27;20104;-74
2022/10/30 03:45:49;;;;;;;16.83;9.23;;;14.60;79.60;;;;;;5117608;28;20039;-74
2022/10/30 03:48:17;;;;;;;14.68;9.02;;;14.60;79.60;;;;;;5128012;28;20038;-72
2022/10/30 03:50:43;;;;;;;13.10;8.85;;;14.60;79.60;;;;;;5095125;28;20071;-73
2022/10/30 03:53:09;;;;;;;12.45;9.15;;;14.60;79.60;;;;;;5117928;28;20065;-73
2022/10/30 03:55:35;;;;;;;16.42;10.80;;;14.60;79.60;;;;;;5132389;28;20498;-73
2022/10/30 03:58:00;;;;;;;11.70;9.00;;;14.60;79.60;;;;;;5095148;28;20044;-73
2022/10/30 04:00:26;;;;;;;12.27;9.00;;;14.60;79.60;;;;;;5145389;27;20075;-73
2022/10/30 04:02:51;;;;;;;13.82;8.80;;;14.60;79.60;;;;;;5129052;27;20050;-73
2022/10/30 04:05:20;;;;;;;20.38;10.10;;;14.50;79.50;;;;;;5130083;28;20031;-73
2022/10/30 04:07:46;;;;;;;16.88;10.13;;;14.60;79.60;;;;;;5131777;28;20545;-73
2022/10/30 04:10:13;;;;;;;13.10;8.40;;;14.50;79.50;;;;;;5132618;28;20039;-73
2022/10/30 04:12:39;;;;;;;13.40;9.20;;;14.50;79.50;;;;;;5118109;28;20502;-73
2022/10/30 04:15:07;;;;;;;12.55;7.85;;;14.50;79.50;;;;;;5132230;28;20035;-73
2022/10/30 04:17:34;;;;;;;12.10;8.10;;;14.50;79.50;;;;;;5129953;28;20038;-73
2022/10/30 04:19:59;;;;;;;16.58;9.63;;;14.50;79.50;;;;;;5115219;28;20031;-73
2022/10/30 04:22:25;;;;;;;11.73;9.70;;;14.50;79.50;;;;;;5103094;28;20359;-73
2022/10/30 04:24:52;;;;;;;12.30;8.35;;;14.50;79.50;;;;;;5112640;28;20035;-73
2022/10/30 04:27:19;;;;;;;17.00;9.70;;;14.50;79.50;;;;;;5114102;28;20031;-73
2022/10/30 04:29:45;;;;;;;13.07;8.95;;;14.50;79.50;;;;;;5132380;28;20126;-73
2022/10/30 04:32:11;;;;;;;10.35;7.65;;;14.40;79.40;;;;;;5108650;28;20031;-73
2022/10/30 04:34:38;;;;;;;14.40;9.50;;;14.40;79.40;;;;;;5116236;28;20555;-73
2022/10/30 04:37:07;;;;;;;13.18;8.90;;;14.40;79.40;;;;;;5101799;28;20031;-73
2022/10/30 04:39:33;;;;;;;12.45;9.27;;;14.40;79.50;;;;;;5111432;28;20041;-73
2022/10/30 04:41:59;;;;;;;16.25;10.05;;;14.40;79.40;;;;;;5126942;28;20115;-73
2022/10/30 04:44:24;;;;;;;17.38;10.88;;;14.40;79.40;;;;;;5108224;28;20054;-73
2022/10/30 04:46:51;;;;;;;13.05;9.77;;;14.40;79.40;;;;;;5130248;28;20051;-73
2022/10/30 04:49:17;;;;;;;14.77;10.43;;;14.30;79.30;;;;;;5114932;28;20035;-73
2022/10/30 04:51:45;;;;;;;16.13;9.65;;;14.30;79.30;;;;;;5133109;27;20512;-73
2022/10/30 04:54:10;;;;;;;16.60;10.13;;;14.30;79.40;;;;;;5105142;28;20051;-73
2022/10/30 04:56:36;;;;;;;19.13;10.93;;;14.30;79.40;;;;;;5109585;27;20498;-73
2022/10/30 04:59:03;;;;;;;17.65;10.68;;;14.30;79.40;;;;;;5098800;28;20181;-73
2022/10/30 05:01:29;;;;;;;22.88;12.43;;;14.30;79.50;;;;;;5118031;27;20046;-73
2022/10/30 05:03:57;;;;;;;17.73;11.73;;;14.20;79.50;;;;;;5129803;27;20036;-73
2022/10/30 05:06:29;;;;;;;19.92;12.15;;;14.20;79.50;;;;;;5115193;27;20039;-73
2022/10/30 05:08:56;;;;;;;15.85;10.45;;;14.20;79.50;;;;;;5131186;27;20065;-73
2022/10/30 05:11:22;;;;;;;20.73;10.75;;;14.10;79.50;;;;;;5134990;27;20399;-73
2022/10/30 05:13:48;;;;;;;24.33;12.20;;;14.10;79.60;;;;;;5115427;27;20050;-73
2022/10/30 05:16:13;;;;;;;20.67;11.77;;;14.00;79.60;;;;;;5112654;28;20047;-73
2022/10/30 05:18:39;;;;;;;17.35;11.90;;;14.00;79.70;;;;;;5114691;27;20046;-73
2022/10/30 05:21:05;;;;;;;22.67;12.40;;;13.90;79.70;;;;;;5147452;27;20118;-73
2022/10/30 05:23:30;;;;;;;22.20;12.07;;;13.90;79.80;;;;;;5146503;27;20050;-73
2022/10/30 05:25:58;;;;;;;22.33;11.30;;;13.90;79.90;;;;;;5121272;27;20133;-73
2022/10/30 05:28:24;;;;;;;22.00;13.63;;;13.80;79.90;;;;;;5116350;27;20084;-73
2022/10/30 05:30:52;;;;;;;19.67;11.52;;;13.80;80.10;;;;;;5129856;27;20428;-73
2022/10/30 05:33:18;;;;;;;19.02;12.25;;;13.80;80.10;;;;;;5114739;27;20039;-73
2022/10/30 05:35:44;;;;;;;18.77;11.98;;;13.70;80.10;;;;;;5120380;27;20439;-73
2022/10/30 05:38:11;;;;;;;23.58;13.07;;;13.70;80.30;;;;;;5128669;27;20039;-73
2022/10/30 05:40:36;;;;;;;17.10;10.88;;;13.70;80.40;;;;;;5114397;28;20387;-73
2022/10/30 05:43:03;;;;;;;16.67;10.18;;;13.70;80.50;;;;;;5117717;27;20051;-74
2022/10/30 05:45:29;;;;;;;13.20;8.32;;;13.60;80.50;;;;;;5111745;28;20063;-73
2022/10/30 05:48:00;;;;;;;14.40;9.43;;;13.60;80.60;;;;;;5116431;27;20485;-73
2022/10/30 05:50:27;;;;;;;16.75;9.63;;;13.60;80.80;;;;;;5116328;27;20562;-73
2022/10/30 05:52:57;;;;;;;17.83;10.55;;;13.60;80.80;;;;;;5116292;27;20175;-73
2022/10/30 05:55:23;;;;;;;17.77;10.80;;;13.60;80.90;;;;;;5134428;27;20039;-73
2022/10/30 05:57:48;;;;;;;13.32;9.73;;;13.60;80.80;;;;;;5099770;28;20136;-73
2022/10/30 06:00:14;;;;;;;12.70;10.25;;;13.60;80.90;;;;;;5126273;27;20478;-73
2022/10/30 06:02:40;;;;;;;13.23;9.48;;;13.70;80.90;;;;;;5114846;27;20364;-73
2022/10/30 06:05:06;;;;;;;15.43;9.70;;;13.60;80.80;;;;;;5097760;28;20042;-73
2022/10/30 06:07:32;;;;;;;13.07;9.05;;;13.60;80.80;;;;;;5113724;27;20043;-73
2022/10/30 06:09:57;;;;;;;14.02;10.43;;;13.60;80.80;;;;;;5134779;27;20040;-73
2022/10/30 06:12:23;;;;;;;12.65;8.55;;;13.60;80.80;;;;;;5113577;28;20035;-73
2022/10/30 06:14:49;;;;;;;11.55;8.52;;;13.60;80.80;;;;;;5131992;27;20118;-73
2022/10/30 06:17:14;;;;;;;13.13;9.02;;;13.60;80.80;;;;;;5119080;27;20039;-73
2022/10/30 06:19:40;;;;;;;15.40;9.73;;;13.60;80.80;;;;;;5113057;28;20048;-73
2022/10/30 06:22:05;;;;;;;11.88;8.27;;;13.60;80.80;;;;;;5123502;27;20765;-73
2022/10/30 06:24:31;;;;;;;13.93;9.77;;;13.60;80.80;;;;;;5117277;27;20031;-73
2022/10/30 06:26:57;;;;;;;16.27;9.77;;;13.60;80.80;;;;;;5102706;28;20044;-73
2022/10/30 06:29:23;;;;;;;15.68;10.18;;;13.60;80.70;;;;;;5104259;27;20075;-73
2022/10/30 06:31:49;;;;;;;18.10;11.63;;;13.60;80.60;;;;;;5133720;27;20390;-73
2022/10/30 06:34:14;;;;;;;14.30;9.40;;;13.60;80.50;;;;;;5120161;27;20490;-73
2022/10/30 06:36:40;;;;;;;16.20;10.88;;;13.60;80.40;;;;;;5114970;27;20047;-73
2022/10/30 06:39:06;;;;;;;20.20;10.73;;;13.60;80.40;;;;;;5130144;27;20478;-73
2022/10/30 06:41:32;;;;;;;14.75;11.07;;;13.60;80.30;;;;;;5147447;27;20044;-73
2022/10/30 06:43:58;;;;;;;15.52;10.82;;;13.50;80.30;;;;;;5117232;27;20060;-73
2022/10/30 06:46:24;;;;;;;20.83;12.05;;;13.60;80.40;;;;;;5124608;27;20069;-73
2022/10/30 06:48:49;;;;;;;16.73;12.38;;;13.50;80.40;;;;;;5147768;27;20039;-75
2022/10/30 06:51:15;;;;;;;23.23;12.38;;;13.50;80.50;;;;;;5115857;27;20452;-75
2022/10/30 06:53:41;;;;;;;20.60;12.52;;;13.50;80.50;;;;;;5132853;27;20039;-75
2022/10/30 06:56:08;;;;;;;19.38;12.60;;;13.50;80.60;;;;;;5104315;27;20057;-75
2022/10/30 06:58:37;;;;;;;23.05;13.73;;;13.50;80.70;;;;;;5098648;28;20039;-75
2022/10/30 07:01:07;;;;;;;24.17;14.80;;;13.50;81.10;;;;;;5130710;27;20043;-75
2022/10/30 07:03:33;;;;;;;22.30;13.77;;;13.40;80.80;;;;;;5121763;27;20050;-75
2022/10/30 07:06:00;;;;;;;20.80;13.85;;;13.40;80.90;;;;;;5128263;27;20062;-75
2022/10/30 07:08:25;;;;;;;25.40;13.50;;;13.40;81.10;;;;;;5133605;27;20070;-76
2022/10/30 07:10:51;;;;;;;18.90;13.50;;;13.40;81.30;;;;;;5123493;27;20062;-75
2022/10/30 07:13:17;;;;;;;22.27;14.68;;;13.40;81.40;;;;;;5125796;27;20118;-75
2022/10/30 07:15:43;;;;;;;19.88;13.05;;;13.40;81.50;;;;;;5121847;27;20043;-75
2022/10/30 07:18:09;;;;;;;19.58;12.88;;;13.40;81.60;;;;;;5101644;27;20031;-75
2022/10/30 07:20:35;;;;;;;19.73;13.13;;;13.30;81.70;;;;;;5105387;28;20498;-75
2022/10/30 07:23:02;;;;;;;19.08;13.60;;;13.30;81.90;;;;;;5095653;28;20044;-76
2022/10/30 07:25:28;;;;;;;21.15;13.55;;;13.30;82.10;;;;;;5112899;28;20061;-75
2022/10/30 07:27:55;;;;;;;20.75;13.25;;;13.30;82.30;;;;;;5117080;27;20657;-76
2022/10/30 07:30:23;;;;;;;23.17;13.63;;;13.40;82.70;;;;;;5101720;28;20071;-76
2022/10/30 07:32:59;;;;;;;21.23;13.13;;;13.40;83.00;;;;;;5112755;28;20040;-75
2022/10/30 07:35:25;;;;;;;20.95;12.90;;;13.40;83.20;;;;;;5112466;28;20039;-76
2022/10/30 07:37:51;;;;;;;23.05;13.15;;;13.50;83.30;;;;;;5125851;27;20100;-76
2022/10/30 07:40:17;;;;;;;21.92;13.32;;;13.50;83.40;;;;;;5112441;28;20040;-77
2022/10/30 07:42:43;;;;;;;17.45;12.38;;;13.60;83.50;;;;;;5122711;27;20130;-73
2022/10/30 07:45:08;;;;;;;19.15;11.82;;;13.70;83.70;;;;;;5131788;27;20545;-73
2022/10/30 07:47:43;;;;;;;19.33;13.45;;;13.80;83.90;;;;;;5126626;28;20067;-73
2022/10/30 07:50:10;;;;;;;19.15;11.80;;;13.90;84.10;;;;;;5125139;28;20038;-74
2022/10/30 07:52:36;;;;;;;18.42;11.80;;;14.10;84.20;;;;;;5113492;28;20114;-76
2022/10/30 07:55:02;;;;;;;17.20;11.75;;;14.20;84.10;;;;;;5125879;28;20130;-76
2022/10/30 07:57:33;;;;;;;19.38;11.38;;;14.40;83.80;;;;;;5107932;28;20067;-74
2022/10/30 07:59:59;;;;;;;18.40;10.73;;;14.60;83.50;;;;;;5110056;28;20070;-73
2022/10/30 08:02:24;;;;;;;20.92;11.60;;;14.90;83.20;;;;;;5110768;28;20494;-76
2022/10/30 08:04:50;;;;;;;16.35;10.75;;;15.10;82.80;;;;;;5117513;28;20386;-76
2022/10/30 08:07:16;;;;;;;16.25;10.48;;;15.30;82.20;;;;;;5120081;28;20490;-76
2022/10/30 08:09:41;;;;;;;15.73;10.43;;;15.60;81.60;;;;;;5115445;28;20127;-76
2022/10/30 08:12:07;;;;;;;16.05;10.75;;;15.80;81.00;;;;;;5129861;28;20481;-76
2022/10/30 08:14:33;;;;;;;17.25;10.55;;;16.00;80.50;;;;;;5132301;28;20043;-76
2022/10/30 08:16:59;;;;;;;18.60;11.07;;;16.20;79.80;;;;;;5117466;28;20066;-76
2022/10/30 08:19:25;;;;;;;15.18;10.75;;;16.40;78.90;;;;;;5114849;28;20513;-80
2022/10/30 08:21:50;;;;;;;17.00;10.43;;;16.60;78.50;;;;;;5098316;28;20047;-76
2022/10/30 08:24:16;;;;;;;15.68;9.95;;;16.80;78.10;;;;;;5124148;28;20039;-76
2022/10/30 08:26:42;;;;;;;15.40;10.20;;;17.00;77.60;;;;;;5118182;27;20044;-75
2022/10/30 08:29:07;;;;;;;14.95;9.73;;;17.20;77.00;;;;;;5104750;28;20035;-80
2022/10/30 08:31:33;;;;;;;19.52;10.65;;;17.40;76.50;;;;;;5099075;28;20053;-81
2022/10/30 08:33:58;;;;;;;15.50;9.73;;;17.60;75.90;;;;;;5116124;28;20075;-79
2022/10/30 08:36:24;;;;;;;16.52;10.38;;;17.70;75.30;;;;;;5102712;27;20043;-79
2022/10/30 08:38:50;;;;;;;19.08;10.07;;;17.80;74.80;;;;;;5107911;28;20967;-79
2022/10/30 08:41:15;;;;;;;16.42;10.95;;;18.00;74.50;;;;;;5122564;27;20036;-75
2022/10/30 08:43:41;;;;;;;17.40;9.82;;;18.10;74.10;;;;;;5115777;27;20050;-79
2022/10/30 08:46:07;;;;;;;16.10;9.95;;;18.20;73.80;;;;;;5087605;27;20043;-76
2022/10/30 08:48:32;;;;;;;15.88;10.20;;;18.30;73.30;;;;;;5135123;27;20096;-76
2022/10/30 08:51:00;;;;;;;17.45;10.80;;;18.50;72.90;;;;;;5099867;27;20032;-76
2022/10/30 08:53:25;;;;;;;16.25;10.20;;;18.60;72.20;;;;;;5132747;27;20055;-76
2022/10/30 08:55:51;;;;;;;15.13;10.10;;;18.60;71.60;;;;;;5114185;28;20043;-76
2022/10/30 08:58:17;;;;;;;14.63;9.35;;;18.70;71.60;;;;;;5131902;27;20119;-75
2022/10/30 09:00:42;;;;;;;15.30;9.88;;;18.80;71.30;;;;;;5135686;27;20062;-74
2022/10/30 09:03:08;;;;;;;16.65;9.82;;;18.90;70.90;;;;;;5128058;27;20036;-75
2022/10/30 09:05:36;;;;;;;15.10;9.77;;;19.00;70.80;;;;;;5119247;27;20123;-76
2022/10/30 09:08:01;;;;;;;17.52;10.70;;;19.20;70.70;;;;;;5112291;27;20071;-81
2022/10/30 09:10:27;;;;;;;19.27;11.25;;;19.30;70.40;;;;;;5135790;27;20077;-81
2022/10/30 09:12:54;;;;;;;20.67;10.18;;;19.40;69.80;;;;;;5135175;27;20043;-80
2022/10/30 09:15:20;;;;;;;13.27;9.40;;;19.50;69.20;;;;;;5122092;27;20066;-81
2022/10/30 09:17:46;;;;;;;17.23;9.82;;;19.60;69.10;;;;;;5144089;27;20485;-80
2022/10/30 09:20:12;;;;;;;15.65;9.60;;;19.60;69.10;;;;;;5098884;28;20043;-80
2022/10/30 09:22:41;;;;;;;13.48;9.55;;;19.70;69.00;;;;;;5125332;27;20065;-75
2022/10/30 09:25:07;;;;;;;15.70;9.70;;;19.70;68.60;;;;;;5094863;27;20419;-80
2022/10/30 09:27:37;;;;;;;16.42;10.40;;;19.80;68.80;;;;;;5097714;28;20100;-80
2022/10/30 09:30:03;;;;;;;14.48;9.95;;;19.80;68.60;;;;;;5104668;28;20062;-80
2022/10/30 09:32:29;;;;;;;14.43;10.05;;;19.80;68.30;;;;;;5115130;28;20453;-80
2022/10/30 09:34:55;;;;;;;17.77;11.10;;;19.90;68.50;;;;;;5097998;28;20157;-81
2022/10/30 09:37:22;;;;;;;16.45;10.82;;;19.90;68.60;;;;;;5104539;27;20485;-76
2022/10/30 09:39:47;;;;;;;16.10;9.90;;;19.90;68.50;;;;;;5116651;27;20038;-76
2022/10/30 09:42:48;;;;;;;14.50;9.57;;;20.00;68.60;;;;;;5101076;27;20092;-81
2022/10/30 09:45:24;;;;;;;19.50;10.20;;;20.10;68.80;;;;;;5135339;27;20103;-81
2022/10/30 09:48:34;;;;;;;17.23;11.57;;;20.10;68.60;;;;;;5135254;27;20112;-80
2022/10/30 09:51:16;;;;;;;16.15;9.65;;;20.20;68.70;;;;;;5135154;27;20046;-81
2022/10/30 09:53:54;;;;;;;15.43;9.90;;;20.20;68.40;;;;;;5128359;27;20036;-81
2022/10/30 09:56:31;;;;;;;16.15;10.40;;;20.30;68.60;;;;;;5097367;28;20048;-81
2022/10/30 09:59:16;;;;;;;18.73;10.13;;;20.30;68.50;;;;;;5115717;27;20122;-81
2022/10/30 10:01:47;;;;;;;16.33;10.73;;;20.40;68.50;;;;;;5126878;27;20127;-80
2022/10/30 10:04:38;;;;;;;19.02;10.57;;;20.40;68.40;;;;;;5109472;27;20078;-81
2022/10/30 10:07:25;;;;;;;18.92;9.90;;;20.50;68.50;;;;;;5116868;27;20163;-80
2022/10/30 10:09:58;;;;;;;15.10;10.35;;;20.50;68.90;;;;;;5114055;28;20386;-81
2022/10/30 10:12:33;;;;;;;15.30;10.43;;;20.60;68.00;;;;;;5122524;27;20382;-81
2022/10/30 10:15:03;;;;;;;16.83;9.65;;;20.60;68.00;;;;;;5124992;27;20299;-81
2022/10/30 10:17:39;;;;;;;17.27;10.48;;;20.60;67.70;;;;;;5101007;28;20027;-80
2022/10/30 10:20:15;;;;;;;15.98;10.63;;;20.60;67.40;;;;;;5106359;27;20069;-81
2022/10/30 10:22:47;;;;;;;14.95;9.57;;;20.70;67.20;;;;;;5128164;27;20046;-81
2022/10/30 10:25:15;;;;;;;19.67;9.80;;;20.70;67.30;;;;;;5126018;27;20493;-81
2022/10/30 10:28:13;;;;;;;16.85;10.05;;;20.70;67.60;;;;;;5124993;27;20031;-81
2022/10/30 10:30:58;;;;;;;17.17;10.35;;;20.70;67.80;;;;;;5140628;27;20382;-81
2022/10/30 10:33:43;;;;;;;15.93;9.55;;;20.70;67.80;;;;;;5118168;27;20039;-76
2022/10/30 10:36:39;;;;;;;14.18;10.07;;;20.80;67.90;;;;;;5121329;27;20125;-76
2022/10/30 10:39:22;;;;;;;14.95;9.63;;;20.90;68.20;;;;;;5110377;27;20446;-76
2022/10/30 10:42:23;;;;;;;14.65;9.50;;;20.80;68.10;;;;;;5109013;27;20032;-77
2022/10/30 10:45:21;;;;;;;16.63;9.60;;;20.90;68.20;;;;;;5117517;27;20044;-77
2022/10/30 10:47:55;;;;;;;14.75;9.70;;;20.90;68.40;;;;;;5110716;28;20051;-76
2022/10/30 10:50:30;;;;;;;13.45;8.75;;;20.90;68.50;;;;;;5110495;27;20386;-77
2022/10/30 10:53:12;;;;;;;17.92;10.15;;;21.00;68.60;;;;;;5126151;27;20362;-82
2022/10/30 10:55:38;;;;;;;15.23;9.30;;;21.00;68.60;;;;;;5103826;27;20500;-81
2022/10/30 10:58:33;;;;;;;15.20;8.52;;;21.10;68.20;;;;;;5105774;27;20044;-81
2022/10/30 11:00:59;;;;;;;16.08;8.60;;;21.10;68.10;;;;;;5102777;27;20043;-82
2022/10/30 11:03:27;;;;;;;19.67;10.35;;;21.10;67.90;;;;;;5106596;27;20035;-81
2022/10/30 11:05:57;;;;;;;11.63;8.05;;;21.10;67.70;;;;;;5125186;27;20027;-82
2022/10/30 11:08:34;;;;;;;14.15;8.65;;;21.20;67.60;;;;;;5110680;27;20089;-76
2022/10/30 11:11:02;;;;;;;15.20;7.88;;;21.20;67.40;;;;;;5111961;27;20038;-76
2022/10/30 11:13:37;;;;;;;12.55;7.75;;;21.20;67.30;;;;;;5110938;27;20119;-76
2022/10/30 11:16:14;;;;;;;14.18;7.38;;;21.20;67.20;;;;;;5127252;27;20083;-81
2022/10/30 11:18:42;;;;;;;11.52;6.47;;;21.20;67.10;;;;;;5122903;27;20122;-81
2022/10/30 11:21:17;;;;;;;12.68;5.93;;;21.20;66.80;;;;;;5094685;27;20393;-82
2022/10/30 11:23:45;;;;;;;14.60;6.80;;;21.20;66.50;;;;;;5104333;27;20043;-81
2022/10/30 11:26:17;;;;;;;13.27;6.88;;;21.20;66.40;;;;;;5125264;27;20031;-81
2022/10/30 11:29:05;;;;;;;10.27;5.90;;;21.30;66.30;;;;;;5124997;27;20043;-80
2022/10/30 11:31:41;;;;;;;13.35;6.25;;;21.30;66.50;;;;;;5118853;27;20035;-82
2022/10/30 11:34:16;;;;;;;11.07;5.53;;;21.30;65.60;;;;;;5133615;27;20038;-81
2022/10/30 11:36:42;;;;;;;13.55;6.20;;;21.20;65.40;;;;;;5124735;27;20058;-82
2022/10/30 11:39:19;;;;;;;12.63;6.10;;;21.20;65.30;;;;;;5121281;27;20046;-82
2022/10/30 11:41:57;;;;;;;10.50;5.45;;;21.20;65.60;;;;;;5120859;27;20043;-81
2022/10/30 11:44:42;;;;;;;14.40;7.28;;;21.20;65.90;;;;;;5120573;27;20047;-80
2022/10/30 11:47:10;;;;;;;12.75;6.75;;;21.20;66.10;;;;;;5103110;28;20039;-82
2022/10/30 11:49:39;;;;;;;15.35;7.22;;;21.20;66.10;;;;;;5106869;28;20027;-81
2022/10/30 11:52:06;;;;;;;11.75;6.40;;;21.20;66.00;;;;;;5106409;28;20035;-81
2022/10/30 11:54:37;;;;;;;12.45;6.70;;;21.20;66.00;;;;;;5102586;28;20047;-80
2022/10/30 11:57:04;;;;;;;13.20;5.95;;;21.30;65.80;;;;;;5123518;28;20053;-79
2022/10/30 11:59:30;;;;;;;13.25;5.82;;;21.30;66.10;;;;;;5104983;27;20042;-80
2022/10/30 12:02:19;;;;;;;11.60;6.88;;;21.20;66.40;;;;;;5092016;27;20041;-80
2022/10/30 12:04:44;;;;;;;10.68;6.82;;;21.30;66.60;;;;;;5125700;27;20554;-79
2022/10/30 12:07:13;;;;;;;12.70;6.40;;;21.20;66.50;;;;;;5092861;27;20039;-79
2022/10/30 12:09:43;;;;;;;14.75;7.00;;;21.30;66.70;;;;;;5111731;27;20118;-78
2022/10/30 12:12:11;;;;;;;15.40;7.20;;;21.30;66.50;;;;;;5097248;27;20517;-80
2022/10/30 12:14:37;;;;;;;9.77;6.13;;;21.30;66.30;;;;;;5105505;27;20482;-84
2022/10/30 12:17:03;;;;;;;12.32;6.90;;;21.30;66.40;;;;;;5079131;27;20045;-82
2022/10/30 12:19:31;;;;;;;12.98;6.32;;;21.30;66.20;;;;;;5078369;27;20070;-80
2022/10/30 12:21:57;;;;;;;16.02;6.93;;;21.30;66.30;;;;;;5078757;27;20034;-80
2022/10/30 12:24:26;;;;;;;11.52;6.90;;;21.20;66.20;;;;;;5110947;27;20051;-77
2022/10/30 12:26:54;;;;;;;7.45;5.03;;;21.20;66.10;;;;;;5128323;27;20053;-76
2022/10/30 12:29:28;;;;;;;12.95;7.55;;;21.20;66.30;;;;;;5093463;27;20027;-79
2022/10/30 12:31:53;;;;;;;;;;;21.20;66.30;;;;;;5126897;27;20140;-80
2022/10/30 12:34:28;;;;;;;14.05;7.55;;;21.20;67.00;;;;;;5105038;27;19933;-83
2022/10/30 12:37:05;;;;;;;13.52;7.57;;;21.10;66.70;;;;;;5113326;27;20050;-83
2022/10/30 12:40:08;;;;;;;11.73;7.15;;;21.10;66.60;;;;;;5110264;27;20039;-81
2022/10/30 12:42:41;;;;;;;14.80;8.73;;;21.10;66.70;;;;;;5109444;27;20483;-82
2022/10/30 12:45:26;;;;;;;14.05;7.68;;;21.10;67.00;;;;;;5086763;28;20073;-81